sensor_id;sensor_type;location;lat;lon;timestamp;temperature;humidity
8914;DHT22;4492;48.736;9.092;2022-11-20T00:00:07;3.80;99.90
8914;DHT22;4492;48.736;9.092;2022-11-20T00:02:33;3.80;99.90
8914;DHT22;4492;48.736;9.092;2022-11-20T00:04:59;3.80;99.90
8914;DHT22;4492;48.736;9.092;2022-11-20T00:07:27;3.80;99.90
8914;DHT22;4492;48.736;9.092;2022-11-20T00:09:58;3.80;99.90
8914;DHT22;4492;48.736;9.092;2022-11-20T00:12:23;3.90;99.90
8914;DHT22;4492;48.736;9.092;2022-11-20T00:14:49;3.90;99.90
8914;DHT22;4492;48.736;9.092;2022-11-20T00:17:14;3.80;99.90
8914;DHT22;4492;48.736;9.092;2022-11-20T00:19:40;3.90;99.90
8914;DHT22;4492;48.736;9.092;2022-11-20T00:22:05;3.90;99.90
8914;DHT22;4492;48.736;9.092;2022-11-20T00:24:31;3.90;99.90
8914;DHT22;4492;48.736;9.092;2022-11-20T00:26:56;3.90;99.90
8914;DHT22;4492;48.736;9.092;2022-11-20T00:29:22;3.90;99.90
8914;DHT22;4492;48.736;9.092;2022-11-20T00:31:47;3.90;99.90
8914;DHT22;4492;48.736;9.092;2022-11-20T00:34:13;3.90;99.90
8914;DHT22;4492;48.736;9.092;2022-11-20T00:36:38;3.90;99.90
8914;DHT22;4492;48.736;9.092;2022-11-20T00:39:04;3.90;99.90
8914;DHT22;4492;48.736;9.092;2022-11-20T00:41:30;3.90;99.90
8914;DHT22;4492;48.736;9.092;2022-11-20T00:43:56;3.90;99.90
8914;DHT22;4492;48.736;9.092;2022-11-20T00:46:24;3.90;99.90
8914;DHT22;4492;48.736;9.092;2022-11-20T00:48:50;4.00;99.90
8914;DHT22;4492;48.736;9.092;2022-11-20T00:51:18;4.00;99.90
8914;DHT22;4492;48.736;9.092;2022-11-20T00:53:44;4.00;99.90
8914;DHT22;4492;48.736;9.092;2022-11-20T00:56:14;4.00;99.90
8914;DHT22;4492;48.736;9.092;2022-11-20T00:58:42;3.90;99.90
8914;DHT22;4492;48.736;9.092;2022-11-20T01:01:19;3.90;99.90
8914;DHT22;4492;48.736;9.092;2022-11-20T01:03:48;3.90;99.90
8914;DHT22;4492;48.736;9.092;2022-11-20T01:06:18;3.90;99.90
8914;DHT22;4492;48.736;9.092;2022-11-20T01:08:44;3.90;99.90
8914;DHT22;4492;48.736;9.092;2022-11-20T01:11:16;3.90;99.90
8914;DHT22;4492;48.736;9.092;2022-11-20T01:13:42;3.90;99.90
8914;DHT22;4492;48.736;9.092;2022-11-20T01:16:11;3.80;99.90
8914;DHT22;4492;48.736;9.092;2022-11-20T01:18:38;3.70;99.90
8914;DHT22;4492;48.736;9.092;2022-11-20T01:21:06;3.60;99.90
8914;DHT22;4492;48.736;9.092;2022-11-20T01:23:34;3.60;99.90
8914;DHT22;4492;48.736;9.092;2022-11-20T01:26:04;3.50;99.90
8914;DHT22;4492;48.736;9.092;2022-11-20T01:28:30;3.40;99.90
8914;DHT22;4492;48.736;9.092;2022-11-20T01:30:57;3.40;99.90
8914;DHT22;4492;48.736;9.092;2022-11-20T01:33:23;3.30;99.90
8914;DHT22;4492;48.736;9.092;2022-11-20T01:35:48;3.20;99.90
8914;DHT22;4492;48.736;9.092;2022-11-20T01:38:15;3.20;99.90
8914;DHT22;4492;48.736;9.092;2022-11-20T01:40:41;3.10;99.90
8914;DHT22;4492;48.736;9.092;2022-11-20T01:43:16;3.10;99.90
8914;DHT22;4492;48.736;9.092;2022-11-20T01:48:33;3.00;99.90
8914;DHT22;4492;48.736;9.092;2022-11-20T01:51:01;2.90;99.90
8914;DHT22;4492;48.736;9.092;2022-11-20T01:53:31;2.90;99.90
8914;DHT22;4492;48.736;9.092;2022-11-20T01:55:59;2.90;99.90
8914;DHT22;4492;48.736;9.092;2022-11-20T01:58:30;2.90;99.90
8914;DHT22;4492;48.736;9.092;2022-11-20T02:00:56;2.90;99.90
8914;DHT22;4492;48.736;9.092;2022-11-20T02:03:22;2.90;99.90
8914;DHT22;4492;48.736;9.092;2022-11-20T02:06:10;2.90;99.90
8914;DHT22;4492;48.736;9.092;2022-11-20T02:08:38;2.90;99.90
8914;DHT22;4492;48.736;9.092;2022-11-20T02:11:03;2.90;99.90
8914;DHT22;4492;48.736;9.092;2022-11-20T02:13:29;2.90;99.90
8914;DHT22;4492;48.736;9.092;2022-11-20T02:18:37;2.90;99.90
8914;DHT22;4492;48.736;9.092;2022-11-20T02:24:09;3.00;99.90
8914;DHT22;4492;48.736;9.092;2022-11-20T02:27:00;2.90;99.90
8914;DHT22;4492;48.736;9.092;2022-11-20T02:31:56;2.90;99.90
8914;DHT22;4492;48.736;9.092;2022-11-20T02:34:23;2.80;99.90
8914;DHT22;4492;48.736;9.092;2022-11-20T02:36:49;2.90;99.90
8914;DHT22;4492;48.736;9.092;2022-11-20T02:39:16;2.90;99.90
8914;DHT22;4492;48.736;9.092;2022-11-20T02:41:44;2.90;99.90
8914;DHT22;4492;48.736;9.092;2022-11-20T02:44:09;2.90;99.90
8914;DHT22;4492;48.736;9.092;2022-11-20T02:46:35;3.00;99.90
8914;DHT22;4492;48.736;9.092;2022-11-20T02:49:04;3.00;99.90
8914;DHT22;4492;48.736;9.092;2022-11-20T02:51:31;3.10;99.90
8914;DHT22;4492;48.736;9.092;2022-11-20T02:53:57;3.10;99.90
8914;DHT22;4492;48.736;9.092;2022-11-20T02:56:23;3.20;99.90
8914;DHT22;4492;48.736;9.092;2022-11-20T02:58:49;3.20;99.90
8914;DHT22;4492;48.736;9.092;2022-11-20T03:01:14;3.30;99.90
8914;DHT22;4492;48.736;9.092;2022-11-20T03:03:40;3.30;99.90
8914;DHT22;4492;48.736;9.092;2022-11-20T03:06:05;3.40;99.90
8914;DHT22;4492;48.736;9.092;2022-11-20T03:08:31;3.40;99.90
8914;DHT22;4492;48.736;9.092;2022-11-20T03:11:01;3.50;99.90
8914;DHT22;4492;48.736;9.092;2022-11-20T03:13:27;3.50;99.90
8914;DHT22;4492;48.736;9.092;2022-11-20T03:15:52;3.60;99.90
8914;DHT22;4492;48.736;9.092;2022-11-20T03:18:18;3.60;99.90
8914;DHT22;4492;48.736;9.092;2022-11-20T03:20:43;3.60;99.90
8914;DHT22;4492;48.736;9.092;2022-11-20T03:23:09;3.60;99.90
8914;DHT22;4492;48.736;9.092;2022-11-20T03:25:34;3.60;99.90
8914;DHT22;4492;48.736;9.092;2022-11-20T03:28:00;3.50;99.90
8914;DHT22;4492;48.736;9.092;2022-11-20T03:30:26;3.50;99.90
8914;DHT22;4492;48.736;9.092;2022-11-20T03:32:53;3.50;99.90
8914;DHT22;4492;48.736;9.092;2022-11-20T03:35:19;3.40;99.90
8914;DHT22;4492;48.736;9.092;2022-11-20T03:37:44;3.40;99.90
8914;DHT22;4492;48.736;9.092;2022-11-20T03:40:11;3.30;99.90
8914;DHT22;4492;48.736;9.092;2022-11-20T03:42:36;3.20;99.90
8914;DHT22;4492;48.736;9.092;2022-11-20T03:45:12;3.10;99.90
8914;DHT22;4492;48.736;9.092;2022-11-20T03:47:38;3.00;99.90
8914;DHT22;4492;48.736;9.092;2022-11-20T03:50:04;3.00;99.90
8914;DHT22;4492;48.736;9.092;2022-11-20T03:52:30;2.90;99.90
8914;DHT22;4492;48.736;9.092;2022-11-20T03:54:55;2.90;99.90
8914;DHT22;4492;48.736;9.092;2022-11-20T03:57:21;2.80;99.90
8914;DHT22;4492;48.736;9.092;2022-11-20T03:59:46;2.70;99.90
8914;DHT22;4492;48.736;9.092;2022-11-20T04:02:12;2.70;99.90
8914;DHT22;4492;48.736;9.092;2022-11-20T04:04:37;2.60;99.90
8914;DHT22;4492;48.736;9.092;2022-11-20T04:07:03;2.60;99.90
8914;DHT22;4492;48.736;9.092;2022-11-20T04:09:28;2.70;99.90
8914;DHT22;4492;48.736;9.092;2022-11-20T04:11:54;2.60;99.90
8914;DHT22;4492;48.736;9.092;2022-11-20T04:14:19;2.60;99.90
8914;DHT22;4492;48.736;9.092;2022-11-20T04:16:45;2.60;99.90
8914;DHT22;4492;48.736;9.092;2022-11-20T04:19:13;2.60;99.90
8914;DHT22;4492;48.736;9.092;2022-11-20T04:21:38;2.50;99.90
8914;DHT22;4492;48.736;9.092;2022-11-20T04:24:04;2.50;99.90
8914;DHT22;4492;48.736;9.092;2022-11-20T04:26:31;2.50;99.90
8914;DHT22;4492;48.736;9.092;2022-11-20T04:28:57;2.50;99.90
8914;DHT22;4492;48.736;9.092;2022-11-20T04:31:28;2.50;99.90
8914;DHT22;4492;48.736;9.092;2022-11-20T04:33:54;2.60;99.90
8914;DHT22;4492;48.736;9.092;2022-11-20T04:36:25;2.60;99.90
8914;DHT22;4492;48.736;9.092;2022-11-20T04:38:55;2.60;99.90
8914;DHT22;4492;48.736;9.092;2022-11-20T04:41:22;2.70;99.90
8914;DHT22;4492;48.736;9.092;2022-11-20T04:43:50;2.70;99.90
8914;DHT22;4492;48.736;9.092;2022-11-20T04:46:17;2.80;99.90
8914;DHT22;4492;48.736;9.092;2022-11-20T04:48:42;2.80;99.90
8914;DHT22;4492;48.736;9.092;2022-11-20T04:51:08;2.80;99.90
8914;DHT22;4492;48.736;9.092;2022-11-20T04:53:33;2.80;99.90
8914;DHT22;4492;48.736;9.092;2022-11-20T04:56:03;2.90;99.90
8914;DHT22;4492;48.736;9.092;2022-11-20T04:58:29;2.90;99.90
8914;DHT22;4492;48.736;9.092;2022-11-20T05:01:15;3.00;99.90
8914;DHT22;4492;48.736;9.092;2022-11-20T05:03:41;3.00;99.90
8914;DHT22;4492;48.736;9.092;2022-11-20T05:06:08;3.10;99.90
8914;DHT22;4492;48.736;9.092;2022-11-20T05:08:34;3.10;99.90
8914;DHT22;4492;48.736;9.092;2022-11-20T05:11:05;3.20;99.90
8914;DHT22;4492;48.736;9.092;2022-11-20T05:13:32;3.20;99.90
8914;DHT22;4492;48.736;9.092;2022-11-20T05:16:05;3.30;99.90
8914;DHT22;4492;48.736;9.092;2022-11-20T05:18:32;3.30;99.90
8914;DHT22;4492;48.736;9.092;2022-11-20T05:20:58;3.40;99.90
8914;DHT22;4492;48.736;9.092;2022-11-20T05:23:25;3.40;99.90
8914;DHT22;4492;48.736;9.092;2022-11-20T05:25:55;3.40;99.90
8914;DHT22;4492;48.736;9.092;2022-11-20T05:28:22;3.50;99.90
8914;DHT22;4492;48.736;9.092;2022-11-20T05:30:48;3.50;99.90
8914;DHT22;4492;48.736;9.092;2022-11-20T05:33:14;3.50;99.90
8914;DHT22;4492;48.736;9.092;2022-11-20T05:35:40;3.60;99.90
8914;DHT22;4492;48.736;9.092;2022-11-20T05:38:05;3.60;99.90
8914;DHT22;4492;48.736;9.092;2022-11-20T05:40:31;3.60;99.90
8914;DHT22;4492;48.736;9.092;2022-11-20T05:42:56;3.50;99.90
8914;DHT22;4492;48.736;9.092;2022-11-20T05:45:22;3.60;99.90
8914;DHT22;4492;48.736;9.092;2022-11-20T05:47:47;3.60;99.90
8914;DHT22;4492;48.736;9.092;2022-11-20T05:50:14;3.60;99.90
8914;DHT22;4492;48.736;9.092;2022-11-20T05:52:40;3.60;99.90
8914;DHT22;4492;48.736;9.092;2022-11-20T05:55:06;3.60;99.90
8914;DHT22;4492;48.736;9.092;2022-11-20T05:57:32;3.60;99.90
8914;DHT22;4492;48.736;9.092;2022-11-20T05:59:57;3.60;99.90
8914;DHT22;4492;48.736;9.092;2022-11-20T06:02:23;3.60;99.90
8914;DHT22;4492;48.736;9.092;2022-11-20T06:04:48;3.60;99.90
8914;DHT22;4492;48.736;9.092;2022-11-20T06:07:14;3.60;99.90
8914;DHT22;4492;48.736;9.092;2022-11-20T06:09:40;3.70;99.90
8914;DHT22;4492;48.736;9.092;2022-11-20T06:12:05;3.60;99.90
8914;DHT22;4492;48.736;9.092;2022-11-20T06:14:32;3.60;99.90
8914;DHT22;4492;48.736;9.092;2022-11-20T06:16:57;3.70;99.90
8914;DHT22;4492;48.736;9.092;2022-11-20T06:19:23;3.70;99.90
8914;DHT22;4492;48.736;9.092;2022-11-20T06:21:49;3.70;99.90
8914;DHT22;4492;48.736;9.092;2022-11-20T06:24:15;3.80;99.90
8914;DHT22;4492;48.736;9.092;2022-11-20T06:26:41;3.80;99.90
8914;DHT22;4492;48.736;9.092;2022-11-20T06:29:07;3.80;99.90
8914;DHT22;4492;48.736;9.092;2022-11-20T06:31:32;3.80;99.90
8914;DHT22;4492;48.736;9.092;2022-11-20T06:34:00;3.80;99.90
8914;DHT22;4492;48.736;9.092;2022-11-20T06:36:26;3.80;99.90
8914;DHT22;4492;48.736;9.092;2022-11-20T06:38:51;3.80;99.90
8914;DHT22;4492;48.736;9.092;2022-11-20T06:41:19;3.90;99.90
8914;DHT22;4492;48.736;9.092;2022-11-20T06:43:45;3.90;99.90
8914;DHT22;4492;48.736;9.092;2022-11-20T06:46:12;3.90;99.90
8914;DHT22;4492;48.736;9.092;2022-11-20T06:48:39;3.90;99.90
8914;DHT22;4492;48.736;9.092;2022-11-20T06:51:05;3.90;99.90
8914;DHT22;4492;48.736;9.092;2022-11-20T06:53:31;3.80;99.90
8914;DHT22;4492;48.736;9.092;2022-11-20T06:55:57;3.90;99.90
8914;DHT22;4492;48.736;9.092;2022-11-20T06:58:23;3.80;99.90
8914;DHT22;4492;48.736;9.092;2022-11-20T07:00:48;3.80;99.90
8914;DHT22;4492;48.736;9.092;2022-11-20T07:03:14;3.80;99.90
8914;DHT22;4492;48.736;9.092;2022-11-20T07:05:40;3.80;99.90
8914;DHT22;4492;48.736;9.092;2022-11-20T07:08:06;3.80;99.90
8914;DHT22;4492;48.736;9.092;2022-11-20T07:10:31;3.80;99.90
8914;DHT22;4492;48.736;9.092;2022-11-20T07:12:57;3.80;99.90
8914;DHT22;4492;48.736;9.092;2022-11-20T07:15:24;3.80;99.90
8914;DHT22;4492;48.736;9.092;2022-11-20T07:17:50;3.80;99.90
8914;DHT22;4492;48.736;9.092;2022-11-20T07:20:15;3.80;99.90
8914;DHT22;4492;48.736;9.092;2022-11-20T07:22:42;3.80;99.90
8914;DHT22;4492;48.736;9.092;2022-11-20T07:25:08;3.90;99.90
8914;DHT22;4492;48.736;9.092;2022-11-20T07:27:34;3.90;99.90
8914;DHT22;4492;48.736;9.092;2022-11-20T07:30:00;3.90;99.90
8914;DHT22;4492;48.736;9.092;2022-11-20T07:32:26;3.90;99.90
8914;DHT22;4492;48.736;9.092;2022-11-20T07:34:52;3.90;99.90
8914;DHT22;4492;48.736;9.092;2022-11-20T07:37:17;3.90;99.90
8914;DHT22;4492;48.736;9.092;2022-11-20T07:39:43;3.90;99.90
8914;DHT22;4492;48.736;9.092;2022-11-20T07:42:09;3.90;99.90
8914;DHT22;4492;48.736;9.092;2022-11-20T07:44:35;3.90;99.90
8914;DHT22;4492;48.736;9.092;2022-11-20T07:47:01;3.90;99.90
8914;DHT22;4492;48.736;9.092;2022-11-20T07:49:26;3.90;99.90
8914;DHT22;4492;48.736;9.092;2022-11-20T07:51:52;4.00;99.90
8914;DHT22;4492;48.736;9.092;2022-11-20T07:54:21;4.10;99.90
8914;DHT22;4492;48.736;9.092;2022-11-20T07:56:47;4.10;99.90
8914;DHT22;4492;48.736;9.092;2022-11-20T07:59:13;4.20;99.90
8914;DHT22;4492;48.736;9.092;2022-11-20T08:01:42;4.30;99.90
8914;DHT22;4492;48.736;9.092;2022-11-20T08:04:08;4.40;99.90
8914;DHT22;4492;48.736;9.092;2022-11-20T08:06:34;4.50;99.90
8914;DHT22;4492;48.736;9.092;2022-11-20T08:08:59;4.60;99.90
8914;DHT22;4492;48.736;9.092;2022-11-20T08:11:25;4.70;99.90
8914;DHT22;4492;48.736;9.092;2022-11-20T08:14:09;4.80;99.90
8914;DHT22;4492;48.736;9.092;2022-11-20T08:16:42;4.80;99.90
8914;DHT22;4492;48.736;9.092;2022-11-20T08:19:08;4.90;99.90
8914;DHT22;4492;48.736;9.092;2022-11-20T08:21:33;4.90;99.90
8914;DHT22;4492;48.736;9.092;2022-11-20T08:23:59;5.00;99.90
8914;DHT22;4492;48.736;9.092;2022-11-20T08:26:25;5.00;99.90
8914;DHT22;4492;48.736;9.092;2022-11-20T08:28:55;5.00;99.90
8914;DHT22;4492;48.736;9.092;2022-11-20T08:31:21;5.00;99.90
8914;DHT22;4492;48.736;9.092;2022-11-20T08:33:46;5.10;99.90
8914;DHT22;4492;48.736;9.092;2022-11-20T08:36:13;5.10;99.90
8914;DHT22;4492;48.736;9.092;2022-11-20T08:38:39;5.10;99.90
8914;DHT22;4492;48.736;9.092;2022-11-20T08:41:05;5.30;99.90
8914;DHT22;4492;48.736;9.092;2022-11-20T08:43:54;5.40;99.90
8914;DHT22;4492;48.736;9.092;2022-11-20T08:46:21;5.60;99.90
8914;DHT22;4492;48.736;9.092;2022-11-20T08:48:46;5.70;99.90
8914;DHT22;4492;48.736;9.092;2022-11-20T08:51:12;5.90;99.90
8914;DHT22;4492;48.736;9.092;2022-11-20T08:53:41;6.00;99.90
8914;DHT22;4492;48.736;9.092;2022-11-20T08:56:07;6.00;99.90
8914;DHT22;4492;48.736;9.092;2022-11-20T08:58:33;6.10;99.90
8914;DHT22;4492;48.736;9.092;2022-11-20T09:00:58;6.20;99.90
8914;DHT22;4492;48.736;9.092;2022-11-20T09:03:24;6.20;99.90
8914;DHT22;4492;48.736;9.092;2022-11-20T09:05:57;6.20;99.90
8914;DHT22;4492;48.736;9.092;2022-11-20T09:08:22;6.30;99.90
8914;DHT22;4492;48.736;9.092;2022-11-20T09:10:51;6.30;99.90
8914;DHT22;4492;48.736;9.092;2022-11-20T09:13:17;6.30;99.90
8914;DHT22;4492;48.736;9.092;2022-11-20T09:15:42;6.30;99.90
8914;DHT22;4492;48.736;9.092;2022-11-20T09:18:08;6.30;99.90
8914;DHT22;4492;48.736;9.092;2022-11-20T09:20:33;6.30;99.90
8914;DHT22;4492;48.736;9.092;2022-11-20T09:22:59;6.40;99.90
8914;DHT22;4492;48.736;9.092;2022-11-20T09:25:25;6.40;99.90
8914;DHT22;4492;48.736;9.092;2022-11-20T09:27:57;6.40;99.90
8914;DHT22;4492;48.736;9.092;2022-11-20T09:30:24;6.30;99.90
8914;DHT22;4492;48.736;9.092;2022-11-20T09:32:49;6.20;99.90
8914;DHT22;4492;48.736;9.092;2022-11-20T09:35:15;6.20;99.90
8914;DHT22;4492;48.736;9.092;2022-11-20T09:37:41;6.10;99.90
8914;DHT22;4492;48.736;9.092;2022-11-20T09:40:22;6.10;99.90
8914;DHT22;4492;48.736;9.092;2022-11-20T09:51:01;6.00;99.90
8914;DHT22;4492;48.736;9.092;2022-11-20T09:54:00;5.90;99.90
8914;DHT22;4492;48.736;9.092;2022-11-20T09:56:33;5.90;99.90
8914;DHT22;4492;48.736;9.092;2022-11-20T09:59:05;6.00;99.90
8914;DHT22;4492;48.736;9.092;2022-11-20T10:01:34;6.00;99.90
8914;DHT22;4492;48.736;9.092;2022-11-20T10:04:13;5.70;99.90
8914;DHT22;4492;48.736;9.092;2022-11-20T10:06:44;5.90;99.90
8914;DHT22;4492;48.736;9.092;2022-11-20T10:11:45;5.90;99.90
8914;DHT22;4492;48.736;9.092;2022-11-20T10:14:26;5.90;99.90
8914;DHT22;4492;48.736;9.092;2022-11-20T10:20:02;6.00;99.90
8914;DHT22;4492;48.736;9.092;2022-11-20T10:25:23;6.10;99.90
8914;DHT22;4492;48.736;9.092;2022-11-20T10:30:38;6.10;99.90
8914;DHT22;4492;48.736;9.092;2022-11-20T10:33:17;6.00;99.90
8914;DHT22;4492;48.736;9.092;2022-11-20T10:38:58;5.90;99.90
8914;DHT22;4492;48.736;9.092;2022-11-20T10:41:40;5.80;99.90
8914;DHT22;4492;48.736;9.092;2022-11-20T10:44:35;5.80;99.90
8914;DHT22;4492;48.736;9.092;2022-11-20T10:47:20;5.70;99.90
8914;DHT22;4492;48.736;9.092;2022-11-20T10:49:50;5.60;99.90
8914;DHT22;4492;48.736;9.092;2022-11-20T10:55:43;5.80;99.90
8914;DHT22;4492;48.736;9.092;2022-11-20T10:58:14;5.80;99.90
8914;DHT22;4492;48.736;9.092;2022-11-20T11:00:40;5.80;99.90
8914;DHT22;4492;48.736;9.092;2022-11-20T11:03:26;5.80;99.90
8914;DHT22;4492;48.736;9.092;2022-11-20T11:06:08;5.80;99.90
8914;DHT22;4492;48.736;9.092;2022-11-20T11:08:39;5.80;99.90
8914;DHT22;4492;48.736;9.092;2022-11-20T11:11:25;5.90;99.90
8914;DHT22;4492;48.736;9.092;2022-11-20T11:13:52;6.00;99.90
8914;DHT22;4492;48.736;9.092;2022-11-20T11:16:24;6.00;99.90
8914;DHT22;4492;48.736;9.092;2022-11-20T11:18:51;6.10;99.90
8914;DHT22;4492;48.736;9.092;2022-11-20T11:21:24;6.30;99.90
8914;DHT22;4492;48.736;9.092;2022-11-20T11:24:03;6.40;99.90
8914;DHT22;4492;48.736;9.092;2022-11-20T11:26:29;6.40;99.90
8914;DHT22;4492;48.736;9.092;2022-11-20T11:29:04;6.40;99.90
8914;DHT22;4492;48.736;9.092;2022-11-20T11:31:32;6.30;99.90
8914;DHT22;4492;48.736;9.092;2022-11-20T11:34:06;6.30;99.90
8914;DHT22;4492;48.736;9.092;2022-11-20T11:36:33;6.30;99.90
8914;DHT22;4492;48.736;9.092;2022-11-20T11:39:02;6.30;99.90
8914;DHT22;4492;48.736;9.092;2022-11-20T11:41:33;6.30;99.90
8914;DHT22;4492;48.736;9.092;2022-11-20T11:44:22;6.40;99.90
8914;DHT22;4492;48.736;9.092;2022-11-20T11:52:28;6.80;99.90
8914;DHT22;4492;48.736;9.092;2022-11-20T11:55:00;7.10;99.90
8914;DHT22;4492;48.736;9.092;2022-11-20T12:00:19;7.40;99.90
8914;DHT22;4492;48.736;9.092;2022-11-20T12:05:35;7.60;99.90
8914;DHT22;4492;48.736;9.092;2022-11-20T12:08:53;7.50;99.90
8914;DHT22;4492;48.736;9.092;2022-11-20T12:16:50;7.40;99.90
8914;DHT22;4492;48.736;9.092;2022-11-20T12:19:18;7.30;99.90
8914;DHT22;4492;48.736;9.092;2022-11-20T12:27:41;7.10;99.90
8914;DHT22;4492;48.736;9.092;2022-11-20T12:30:10;7.10;99.90
8914;DHT22;4492;48.736;9.092;2022-11-20T12:32:44;7.10;99.90
8914;DHT22;4492;48.736;9.092;2022-11-20T12:37:59;6.80;99.90
8914;DHT22;4492;48.736;9.092;2022-11-20T12:43:31;6.60;99.90
8914;DHT22;4492;48.736;9.092;2022-11-20T12:51:51;6.60;99.90
8914;DHT22;4492;48.736;9.092;2022-11-20T12:54:50;6.60;99.90
8914;DHT22;4492;48.736;9.092;2022-11-20T12:57:28;6.70;99.90
8914;DHT22;4492;48.736;9.092;2022-11-20T13:08:18;6.60;99.90
8914;DHT22;4492;48.736;9.092;2022-11-20T13:11:06;6.60;99.90
8914;DHT22;4492;48.736;9.092;2022-11-20T13:16:54;6.80;99.90
8914;DHT22;4492;48.736;9.092;2022-11-20T13:19:23;6.90;99.90
8914;DHT22;4492;48.736;9.092;2022-11-20T13:21:49;7.10;99.90
8914;DHT22;4492;48.736;9.092;2022-11-20T13:26:44;7.00;99.90
8914;DHT22;4492;48.736;9.092;2022-11-20T13:29:16;6.80;99.90
8914;DHT22;4492;48.736;9.092;2022-11-20T13:31:44;6.70;99.90
8914;DHT22;4492;48.736;9.092;2022-11-20T13:34:21;6.70;99.90
8914;DHT22;4492;48.736;9.092;2022-11-20T13:36:52;6.80;99.90
8914;DHT22;4492;48.736;9.092;2022-11-20T13:39:29;6.70;99.90
8914;DHT22;4492;48.736;9.092;2022-11-20T13:42:20;6.80;99.90
8914;DHT22;4492;48.736;9.092;2022-11-20T13:44:54;6.90;99.90
8914;DHT22;4492;48.736;9.092;2022-11-20T13:47:23;6.90;99.90
8914;DHT22;4492;48.736;9.092;2022-11-20T13:49:49;6.90;99.90
8914;DHT22;4492;48.736;9.092;2022-11-20T13:55:21;7.00;99.90
8914;DHT22;4492;48.736;9.092;2022-11-20T14:00:30;7.00;99.90
8914;DHT22;4492;48.736;9.092;2022-11-20T14:05:40;6.70;99.90
8914;DHT22;4492;48.736;9.092;2022-11-20T14:08:16;6.60;99.90
8914;DHT22;4492;48.736;9.092;2022-11-20T14:10:44;6.50;99.90
8914;DHT22;4492;48.736;9.092;2022-11-20T14:13:18;6.40;99.90
8914;DHT22;4492;48.736;9.092;2022-11-20T14:15:44;6.40;99.90
8914;DHT22;4492;48.736;9.092;2022-11-20T14:18:21;6.40;99.90
8914;DHT22;4492;48.736;9.092;2022-11-20T14:20:47;6.30;99.90
8914;DHT22;4492;48.736;9.092;2022-11-20T14:23:24;6.30;99.90
8914;DHT22;4492;48.736;9.092;2022-11-20T14:25:50;6.20;99.90
8914;DHT22;4492;48.736;9.092;2022-11-20T14:28:28;6.10;99.90
8914;DHT22;4492;48.736;9.092;2022-11-20T14:30:54;6.10;99.90
8914;DHT22;4492;48.736;9.092;2022-11-20T14:33:21;6.10;99.90
8914;DHT22;4492;48.736;9.092;2022-11-20T14:35:53;6.10;99.90
8914;DHT22;4492;48.736;9.092;2022-11-20T14:38:22;6.10;99.90
8914;DHT22;4492;48.736;9.092;2022-11-20T14:40:49;6.00;99.90
8914;DHT22;4492;48.736;9.092;2022-11-20T14:43:26;6.00;99.90
8914;DHT22;4492;48.736;9.092;2022-11-20T14:45:59;6.00;99.90
8914;DHT22;4492;48.736;9.092;2022-11-20T14:48:47;6.00;99.90
8914;DHT22;4492;48.736;9.092;2022-11-20T14:51:37;5.90;99.90
8914;DHT22;4492;48.736;9.092;2022-11-20T14:54:17;5.90;99.90
8914;DHT22;4492;48.736;9.092;2022-11-20T14:56:57;5.80;99.90
8914;DHT22;4492;48.736;9.092;2022-11-20T14:59:28;5.80;99.90
8914;DHT22;4492;48.736;9.092;2022-11-20T15:02:10;5.70;99.90
8914;DHT22;4492;48.736;9.092;2022-11-20T15:04:48;5.70;99.90
8914;DHT22;4492;48.736;9.092;2022-11-20T15:07:30;5.70;99.90
8914;DHT22;4492;48.736;9.092;2022-11-20T15:12:51;5.60;99.90
8914;DHT22;4492;48.736;9.092;2022-11-20T15:15:32;5.50;99.90
8914;DHT22;4492;48.736;9.092;2022-11-20T15:18:00;5.40;99.90
8914;DHT22;4492;48.736;9.092;2022-11-20T15:20:30;5.40;99.90
8914;DHT22;4492;48.736;9.092;2022-11-20T15:22:56;5.60;99.90
8914;DHT22;4492;48.736;9.092;2022-11-20T15:25:22;5.50;99.90
8914;DHT22;4492;48.736;9.092;2022-11-20T15:27:53;5.40;99.90
8914;DHT22;4492;48.736;9.092;2022-11-20T15:30:20;5.40;99.90
8914;DHT22;4492;48.736;9.092;2022-11-20T15:32:46;5.20;99.90
8914;DHT22;4492;48.736;9.092;2022-11-20T15:35:13;5.20;99.90
8914;DHT22;4492;48.736;9.092;2022-11-20T15:37:40;5.10;99.90
8914;DHT22;4492;48.736;9.092;2022-11-20T15:40:06;5.00;99.90
8914;DHT22;4492;48.736;9.092;2022-11-20T15:42:33;5.00;99.90
8914;DHT22;4492;48.736;9.092;2022-11-20T15:44:59;4.90;99.90
8914;DHT22;4492;48.736;9.092;2022-11-20T15:47:28;4.90;99.90
8914;DHT22;4492;48.736;9.092;2022-11-20T15:49:54;4.80;99.90
8914;DHT22;4492;48.736;9.092;2022-11-20T15:52:19;4.80;99.90
8914;DHT22;4492;48.736;9.092;2022-11-20T15:54:45;4.80;99.90
8914;DHT22;4492;48.736;9.092;2022-11-20T15:57:10;4.60;99.90
8914;DHT22;4492;48.736;9.092;2022-11-20T15:59:36;4.60;99.90
8914;DHT22;4492;48.736;9.092;2022-11-20T16:02:12;4.50;99.90
8914;DHT22;4492;48.736;9.092;2022-11-20T16:04:38;4.50;99.90
8914;DHT22;4492;48.736;9.092;2022-11-20T16:07:04;4.50;99.90
8914;DHT22;4492;48.736;9.092;2022-11-20T16:09:29;4.50;99.90
8914;DHT22;4492;48.736;9.092;2022-11-20T16:11:55;4.50;99.90
8914;DHT22;4492;48.736;9.092;2022-11-20T16:14:21;4.50;99.90
8914;DHT22;4492;48.736;9.092;2022-11-20T16:17:05;4.50;99.90
8914;DHT22;4492;48.736;9.092;2022-11-20T16:19:31;4.50;99.90
8914;DHT22;4492;48.736;9.092;2022-11-20T16:22:01;4.50;99.90
8914;DHT22;4492;48.736;9.092;2022-11-20T16:24:28;4.50;99.90
8914;DHT22;4492;48.736;9.092;2022-11-20T16:26:54;4.50;99.90
8914;DHT22;4492;48.736;9.092;2022-11-20T16:29:20;4.60;99.90
8914;DHT22;4492;48.736;9.092;2022-11-20T16:31:45;4.60;99.90
8914;DHT22;4492;48.736;9.092;2022-11-20T16:34:11;4.60;99.90
8914;DHT22;4492;48.736;9.092;2022-11-20T16:36:39;4.60;99.90
8914;DHT22;4492;48.736;9.092;2022-11-20T16:39:05;4.70;99.90
8914;DHT22;4492;48.736;9.092;2022-11-20T16:41:33;4.70;99.90
8914;DHT22;4492;48.736;9.092;2022-11-20T16:44:01;4.80;99.90
8914;DHT22;4492;48.736;9.092;2022-11-20T16:46:30;4.80;99.90
8914;DHT22;4492;48.736;9.092;2022-11-20T16:48:57;4.90;99.90
8914;DHT22;4492;48.736;9.092;2022-11-20T16:51:24;4.90;99.90
8914;DHT22;4492;48.736;9.092;2022-11-20T16:53:50;5.00;99.90
8914;DHT22;4492;48.736;9.092;2022-11-20T16:56:21;5.00;99.90
8914;DHT22;4492;48.736;9.092;2022-11-20T16:58:48;5.00;99.90
8914;DHT22;4492;48.736;9.092;2022-11-20T17:01:19;5.00;99.90
8914;DHT22;4492;48.736;9.092;2022-11-20T17:03:53;5.10;99.90
8914;DHT22;4492;48.736;9.092;2022-11-20T17:06:21;5.10;99.90
8914;DHT22;4492;48.736;9.092;2022-11-20T17:08:47;5.10;99.90
8914;DHT22;4492;48.736;9.092;2022-11-20T17:11:17;5.10;99.90
8914;DHT22;4492;48.736;9.092;2022-11-20T17:13:43;5.10;99.90
8914;DHT22;4492;48.736;9.092;2022-11-20T17:16:20;5.10;99.90
8914;DHT22;4492;48.736;9.092;2022-11-20T17:18:46;5.10;99.90
8914;DHT22;4492;48.736;9.092;2022-11-20T17:21:14;5.10;99.90
8914;DHT22;4492;48.736;9.092;2022-11-20T17:23:41;5.10;99.90
8914;DHT22;4492;48.736;9.092;2022-11-20T17:28:35;5.10;99.90
8914;DHT22;4492;48.736;9.092;2022-11-20T17:31:10;5.10;99.90
8914;DHT22;4492;48.736;9.092;2022-11-20T17:33:37;5.10;99.90
8914;DHT22;4492;48.736;9.092;2022-11-20T17:36:05;5.10;99.90
8914;DHT22;4492;48.736;9.092;2022-11-20T17:38:31;5.10;99.90
8914;DHT22;4492;48.736;9.092;2022-11-20T17:41:02;5.10;99.90
8914;DHT22;4492;48.736;9.092;2022-11-20T17:43:28;5.10;99.90
8914;DHT22;4492;48.736;9.092;2022-11-20T17:45:54;5.10;99.90
8914;DHT22;4492;48.736;9.092;2022-11-20T17:48:20;5.10;99.90
8914;DHT22;4492;48.736;9.092;2022-11-20T17:50:46;5.20;99.90
8914;DHT22;4492;48.736;9.092;2022-11-20T17:53:11;5.20;99.90
8914;DHT22;4492;48.736;9.092;2022-11-20T17:55:37;5.20;99.90
8914;DHT22;4492;48.736;9.092;2022-11-20T17:58:21;5.20;99.90
8914;DHT22;4492;48.736;9.092;2022-11-20T18:00:53;5.10;99.90
8914;DHT22;4492;48.736;9.092;2022-11-20T18:03:19;5.20;99.90
8914;DHT22;4492;48.736;9.092;2022-11-20T18:05:44;5.30;99.90